TOM516 LFMN-EDDH
Flight info
| Callsign | TOM516 |
|---|---|
| Flight time | 1h 14m |
| Altitude | 38000 |
| Route | IRMAR8A IRMAR DCT KINES DCT VANAS DCT MOBLO DCT UBIMA DCT GILIR DCT PENDU DCT UZCUX DCT SOSAD DCT OBOKA/N0458F390 DCT BASUM/N0459F400 Y850 PIXUR/N0457F390 Y850 MUBZI M105 RIBSO RIBSO7A |
| Aircraft | B738/M-V/N |
Departure
| Time | 2026-05-07 21:15 |
|---|---|
| Airport | Nice-Côte d'Azur Airport (LFMN) |
Arrival
| Time | 2026-05-07 22:29 |
|---|---|
| Airport | Hamburg Helmut Schmidt Airport (EDDH) |
| Time | Latitude | Longitude | Altitude | Speed | Heading |
|---|---|---|---|---|---|
| 2026-05-07 21:02 | 43.65957 | 7.20730 | 27 ft | 0 kts | 281° |
| 2026-05-07 21:09 | 43.65955 | 7.20743 | 27 ft | 2 kts | 278° |
| 2026-05-07 21:09 | 43.65952 | 7.20765 | 26 ft | 2 kts | 277° |
| 2026-05-07 21:09 | 43.65951 | 7.20788 | 26 ft | 2 kts | 271° |
| 2026-05-07 21:09 | 43.65952 | 7.20811 | 26 ft | 2 kts | 252° |
| 2026-05-07 21:10 | 43.65962 | 7.20827 | 26 ft | 2 kts | 181° |
| 2026-05-07 21:10 | 43.65970 | 7.20826 | 24 ft | 0 kts | 170° |
| 2026-05-07 21:11 | 43.65965 | 7.20828 | 25 ft | 0 kts | 170° |
| 2026-05-07 21:11 | 43.65960 | 7.20828 | 26 ft | 3 kts | 172° |
| 2026-05-07 21:11 | 43.65856 | 7.20854 | 23 ft | 14 kts | 169° |
| 2026-05-07 21:12 | 43.65748 | 7.20859 | 23 ft | 14 kts | 217° |
| 2026-05-07 21:12 | 43.65673 | 7.20760 | 23 ft | 17 kts | 225° |
| 2026-05-07 21:12 | 43.65583 | 7.20638 | 23 ft | 19 kts | 224° |
| 2026-05-07 21:12 | 43.65484 | 7.20500 | 24 ft | 21 kts | 223° |
| 2026-05-07 21:13 | 43.65377 | 7.20356 | 25 ft | 22 kts | 225° |
| 2026-05-07 21:13 | 43.65260 | 7.20331 | 26 ft | 18 kts | 136° |
| 2026-05-07 21:13 | 43.65235 | 7.20473 | 24 ft | 16 kts | 55° |
| 2026-05-07 21:13 | 43.65284 | 7.20547 | 24 ft | 0 kts | 45° |
| 2026-05-07 21:14 | 43.65285 | 7.20548 | 24 ft | 0 kts | 45° |
| 2026-05-07 21:14 | 43.65397 | 7.20704 | 27 ft | 66 kts | 43° |
| 2026-05-07 21:14 | 43.65943 | 7.21450 | 23 ft | 149 kts | 45° |
| 2026-05-07 21:14 | 43.66754 | 7.22570 | 507 ft | 169 kts | 44° |
| 2026-05-07 21:15 | 43.67511 | 7.23831 | 1271 ft | 179 kts | 70° |
| 2026-05-07 21:15 | 43.67108 | 7.25533 | 1736 ft | 201 kts | 129° |
| 2026-05-07 21:15 | 43.66070 | 7.26830 | 2185 ft | 209 kts | 143° |
| 2026-05-07 21:15 | 43.64882 | 7.28064 | 2663 ft | 215 kts | 141° |
| 2026-05-07 21:16 | 43.63717 | 7.29383 | 3161 ft | 219 kts | 139° |
| 2026-05-07 21:16 | 43.62559 | 7.30760 | 3660 ft | 221 kts | 140° |
| 2026-05-07 21:16 | 43.61215 | 7.31740 | 4191 ft | 222 kts | 171° |
| 2026-05-07 21:16 | 43.59688 | 7.31508 | 4740 ft | 225 kts | 205° |
| 2026-05-07 21:17 | 43.58369 | 7.30484 | 5263 ft | 227 kts | 211° |
| 2026-05-07 21:17 | 43.57030 | 7.29303 | 5792 ft | 229 kts | 212° |
| 2026-05-07 21:17 | 43.55716 | 7.28092 | 6328 ft | 231 kts | 220° |
| 2026-05-07 21:17 | 43.54852 | 7.26250 | 6855 ft | 236 kts | 255° |
| 2026-05-07 21:18 | 43.54868 | 7.23987 | 7418 ft | 237 kts | 290° |
| 2026-05-07 21:18 | 43.55694 | 7.22051 | 7976 ft | 240 kts | 307° |
| 2026-05-07 21:18 | 43.56731 | 7.20246 | 8511 ft | 242 kts | 309° |
| 2026-05-07 21:18 | 43.57799 | 7.18433 | 9072 ft | 244 kts | 309° |
| 2026-05-07 21:19 | 43.58852 | 7.16586 | 9619 ft | 247 kts | 308° |
| 2026-05-07 21:19 | 43.59913 | 7.14702 | 10154 ft | 249 kts | 308° |
| 2026-05-07 21:19 | 43.61093 | 7.12939 | 10666 ft | 253 kts | 329° |
| 2026-05-07 21:19 | 43.62720 | 7.11961 | 11231 ft | 260 kts | 341° |
| 2026-05-07 21:20 | 43.64478 | 7.11206 | 11726 ft | 271 kts | 343° |
| 2026-05-07 21:20 | 43.66333 | 7.10440 | 12122 ft | 286 kts | 342° |
| 2026-05-07 21:20 | 43.68285 | 7.09581 | 12462 ft | 302 kts | 341° |
| 2026-05-07 21:20 | 43.70339 | 7.08655 | 12819 ft | 318 kts | 341° |
| 2026-05-07 21:21 | 43.72495 | 7.07696 | 13170 ft | 334 kts | 342° |
| 2026-05-07 21:21 | 43.74758 | 7.06700 | 13511 ft | 349 kts | 342° |
| 2026-05-07 21:21 | 43.77126 | 7.05653 | 13838 ft | 364 kts | 341° |
| 2026-05-07 21:21 | 43.79585 | 7.04560 | 14140 ft | 378 kts | 341° |
| 2026-05-07 21:22 | 43.82138 | 7.03425 | 14439 ft | 391 kts | 341° |
| 2026-05-07 21:22 | 43.84712 | 7.02282 | 14724 ft | 392 kts | 341° |
| 2026-05-07 21:22 | 43.87306 | 7.01129 | 15009 ft | 395 kts | 341° |
| 2026-05-07 21:22 | 43.89911 | 6.99969 | 15279 ft | 397 kts | 341° |
| 2026-05-07 21:23 | 43.92540 | 6.98796 | 15566 ft | 399 kts | 341° |
| 2026-05-07 21:23 | 43.95181 | 6.97619 | 15849 ft | 399 kts | 341° |
| 2026-05-07 21:23 | 43.97823 | 6.96439 | 16133 ft | 402 kts | 341° |
| 2026-05-07 21:23 | 44.00492 | 6.95246 | 16410 ft | 403 kts | 341° |
| 2026-05-07 21:24 | 44.03163 | 6.94051 | 16694 ft | 405 kts | 341° |
| 2026-05-07 21:24 | 44.05847 | 6.92849 | 16984 ft | 407 kts | 341° |
| 2026-05-07 21:24 | 44.08525 | 6.91649 | 17274 ft | 409 kts | 341° |
| 2026-05-07 21:24 | 44.11233 | 6.90435 | 17579 ft | 410 kts | 341° |
| 2026-05-07 21:25 | 44.13913 | 6.89259 | 17857 ft | 412 kts | 343° |
| 2026-05-07 21:25 | 44.16793 | 6.88634 | 18164 ft | 415 kts | 352° |
| 2026-05-07 21:25 | 44.23066 | 6.87742 | 18765 ft | 417 kts | 352° |
| 2026-05-07 21:25 | 44.28873 | 6.86833 | 19285 ft | 421 kts | 352° |
| 2026-05-07 21:26 | 44.34718 | 6.85963 | 19812 ft | 424 kts | 352° |
| 2026-05-07 21:26 | 44.40615 | 6.85066 | 20353 ft | 427 kts | 352° |
| 2026-05-07 21:26 | 44.46521 | 6.84170 | 20920 ft | 429 kts | 352° |
| 2026-05-07 21:26 | 44.52502 | 6.83261 | 21487 ft | 433 kts | 352° |
| 2026-05-07 21:27 | 44.58440 | 6.82356 | 22053 ft | 437 kts | 351° |
| 2026-05-07 21:27 | 44.64505 | 6.81431 | 22646 ft | 440 kts | 351° |
| 2026-05-07 21:27 | 44.70615 | 6.80495 | 23244 ft | 444 kts | 351° |
| 2026-05-07 21:27 | 44.76771 | 6.79552 | 23803 ft | 447 kts | 351° |
| 2026-05-07 21:28 | 44.83000 | 6.78836 | 24326 ft | 453 kts | 354° |
| 2026-05-07 21:28 | 44.89324 | 6.78456 | 24854 ft | 456 kts | 354° |
| 2026-05-07 21:28 | 44.95687 | 6.78012 | 25386 ft | 460 kts | 354° |
| 2026-05-07 21:28 | 45.02103 | 6.77602 | 25936 ft | 464 kts | 354° |
| 2026-05-07 21:29 | 45.08575 | 6.77165 | 26489 ft | 468 kts | 354° |
| 2026-05-07 21:29 | 45.15116 | 6.76734 | 27042 ft | 472 kts | 353° |
| 2026-05-07 21:29 | 45.21680 | 6.76296 | 27625 ft | 471 kts | 354° |
| 2026-05-07 21:29 | 45.28220 | 6.75860 | 28205 ft | 470 kts | 353° |
| 2026-05-07 21:30 | 45.34750 | 6.75423 | 28796 ft | 469 kts | 353° |
| 2026-05-07 21:30 | 45.41266 | 6.74988 | 29415 ft | 467 kts | 353° |
| 2026-05-07 21:30 | 45.47745 | 6.74553 | 30014 ft | 466 kts | 353° |
| 2026-05-07 21:30 | 45.54217 | 6.74110 | 30549 ft | 464 kts | 353° |
| 2026-05-07 21:31 | 45.60653 | 6.73672 | 31093 ft | 461 kts | 352° |
| 2026-05-07 21:31 | 45.66975 | 6.73239 | 31615 ft | 460 kts | 352° |
| 2026-05-07 21:31 | 45.73326 | 6.72804 | 32156 ft | 458 kts | 352° |
| 2026-05-07 21:31 | 45.79698 | 6.72365 | 32747 ft | 457 kts | 352° |
| 2026-05-07 21:32 | 45.86036 | 6.71933 | 33323 ft | 456 kts | 352° |
| 2026-05-07 21:32 | 45.92365 | 6.71502 | 33905 ft | 455 kts | 352° |
| 2026-05-07 21:32 | 45.98673 | 6.71070 | 34445 ft | 454 kts | 353° |
| 2026-05-07 21:32 | 46.04977 | 6.70638 | 34963 ft | 453 kts | 353° |
| 2026-05-07 21:33 | 46.11270 | 6.70185 | 35485 ft | 451 kts | 349° |
| 2026-05-07 21:33 | 46.16895 | 6.68028 | 36040 ft | 441 kts | 336° |
| 2026-05-07 21:33 | 46.18348 | 6.67318 | 36183 ft | 441 kts | 337° |
| 2026-05-07 21:33 | 46.22139 | 6.65510 | 36543 ft | 440 kts | 337° |
| 2026-05-07 21:34 | 46.27937 | 6.62685 | 37116 ft | 440 kts | 336° |
| 2026-05-07 21:34 | 46.33716 | 6.59866 | 37675 ft | 440 kts | 337° |
| 2026-05-07 21:34 | 46.39491 | 6.57046 | 38005 ft | 442 kts | 336° |
| 2026-05-07 21:34 | 46.45293 | 6.54203 | 37994 ft | 442 kts | 337° |
| 2026-05-07 21:35 | 46.56808 | 6.48546 | 38006 ft | 442 kts | 336° |
| 2026-05-07 21:35 | 46.68431 | 6.42809 | 38022 ft | 442 kts | 337° |
| 2026-05-07 21:36 | 46.80285 | 6.36929 | 38046 ft | 461 kts | 337° |
| 2026-05-07 21:36 | 47.09322 | 6.22154 | 37989 ft | 445 kts | 330° |
| 2026-05-07 21:37 | 47.24581 | 6.10817 | 38015 ft | 454 kts | 330° |
| 2026-05-07 21:37 | 47.36082 | 6.04237 | 38073 ft | 472 kts | 0° |
| 2026-05-07 21:38 | 47.42540 | 6.06545 | 38038 ft | 482 kts | 16° |
| 2026-05-07 21:38 | 47.48657 | 6.09569 | 38037 ft | 480 kts | 13° |
| 2026-05-07 21:38 | 47.61433 | 6.15280 | 38042 ft | 481 kts | 13° |
| 2026-05-07 21:39 | 47.74478 | 6.21186 | 38046 ft | 481 kts | 14° |
| 2026-05-07 21:39 | 47.87156 | 6.26973 | 38044 ft | 480 kts | 14° |
| 2026-05-07 21:40 | 47.99886 | 6.32821 | 38048 ft | 480 kts | 14° |
| 2026-05-07 21:40 | 48.12644 | 6.38715 | 38048 ft | 480 kts | 14° |
| 2026-05-07 21:41 | 48.25375 | 6.44628 | 38045 ft | 480 kts | 14° |
| 2026-05-07 21:41 | 48.38126 | 6.50580 | 38047 ft | 480 kts | 14° |
| 2026-05-07 21:42 | 48.50865 | 6.56558 | 38050 ft | 480 kts | 14° |
| 2026-05-07 21:42 | 48.63594 | 6.62563 | 38063 ft | 479 kts | 14° |
| 2026-05-07 21:43 | 48.76323 | 6.68600 | 38053 ft | 479 kts | 14° |
| 2026-05-07 21:43 | 48.89055 | 6.74670 | 38067 ft | 480 kts | 14° |
| 2026-05-07 21:44 | 48.99646 | 6.79744 | 38056 ft | 480 kts | 14° |
| 2026-05-07 21:44 | 49.14528 | 6.86913 | 38047 ft | 479 kts | 14° |
| 2026-05-07 21:45 | 49.25081 | 6.92027 | 38050 ft | 479 kts | 15° |
| 2026-05-07 21:45 | 49.38022 | 6.96484 | 38056 ft | 477 kts | 7° |
| 2026-05-07 21:46 | 49.51082 | 6.99961 | 38054 ft | 476 kts | 7° |
| 2026-05-07 21:46 | 49.72661 | 7.05757 | 38050 ft | 476 kts | 7° |
| 2026-05-07 21:47 | 49.97789 | 7.12563 | 38070 ft | 476 kts | 7° |
| 2026-05-07 21:47 | 50.08564 | 7.15505 | 38058 ft | 475 kts | 7° |
| 2026-05-07 21:48 | 50.21598 | 7.19084 | 38050 ft | 475 kts | 7° |
| 2026-05-07 21:48 | 50.34602 | 7.22672 | 38054 ft | 475 kts | 7° |
| 2026-05-07 21:49 | 50.67949 | 7.31952 | 38191 ft | 472 kts | 8° |
| 2026-05-07 21:49 | 50.81548 | 7.38004 | 38076 ft | 482 kts | 25° |
| 2026-05-07 21:49 | 50.87383 | 7.42827 | 38076 ft | 478 kts | 22° |
| 2026-05-07 21:50 | 50.99743 | 7.51139 | 38065 ft | 479 kts | 22° |
| 2026-05-07 21:50 | 51.11878 | 7.59493 | 38069 ft | 479 kts | 22° |
| 2026-05-07 21:51 | 51.24081 | 7.67979 | 38080 ft | 478 kts | 22° |
| 2026-05-07 21:51 | 51.36277 | 7.76514 | 38082 ft | 478 kts | 22° |
| 2026-05-07 21:52 | 51.48430 | 7.85067 | 38082 ft | 478 kts | 22° |
| 2026-05-07 21:52 | 51.60618 | 7.93693 | 38084 ft | 477 kts | 22° |
| 2026-05-07 21:53 | 51.72760 | 8.02337 | 38091 ft | 477 kts | 22° |
| 2026-05-07 21:53 | 51.84900 | 8.11030 | 38097 ft | 476 kts | 22° |
| 2026-05-07 21:54 | 51.96991 | 8.19739 | 38102 ft | 476 kts | 22° |
| 2026-05-07 21:54 | 52.09111 | 8.28521 | 38107 ft | 477 kts | 22° |
| 2026-05-07 21:55 | 52.21221 | 8.37348 | 38111 ft | 477 kts | 23° |
| 2026-05-07 21:55 | 52.33321 | 8.46221 | 38107 ft | 475 kts | 23° |
| 2026-05-07 21:56 | 52.45361 | 8.55103 | 38111 ft | 476 kts | 23° |
| 2026-05-07 21:56 | 52.57341 | 8.63995 | 38042 ft | 475 kts | 23° |
| 2026-05-07 21:57 | 52.62230 | 8.67639 | 37831 ft | 476 kts | 23° |
| 2026-05-07 21:57 | 52.63737 | 8.68764 | 37696 ft | 475 kts | 23° |
| 2026-05-07 21:57 | 52.65241 | 8.69887 | 37547 ft | 474 kts | 23° |
| 2026-05-07 21:57 | 52.66739 | 8.71008 | 37385 ft | 473 kts | 23° |
| 2026-05-07 21:58 | 52.68216 | 8.72113 | 37173 ft | 472 kts | 23° |
| 2026-05-07 21:58 | 52.69728 | 8.73245 | 36908 ft | 472 kts | 23° |
| 2026-05-07 21:58 | 52.71203 | 8.74350 | 36651 ft | 472 kts | 23° |
| 2026-05-07 21:58 | 52.72697 | 8.75470 | 36354 ft | 471 kts | 23° |
| 2026-05-07 21:59 | 52.74189 | 8.76589 | 36048 ft | 471 kts | 22° |
| 2026-05-07 21:59 | 52.75710 | 8.77597 | 35727 ft | 470 kts | 17° |
| 2026-05-07 21:59 | 52.77281 | 8.78306 | 35395 ft | 468 kts | 10° |
| 2026-05-07 21:59 | 52.78886 | 8.78720 | 35034 ft | 467 kts | 4° |
| 2026-05-07 22:00 | 52.80508 | 8.78854 | 34649 ft | 466 kts | 359° |
| 2026-05-07 22:00 | 52.82132 | 8.78856 | 34258 ft | 467 kts | 358° |
| 2026-05-07 22:00 | 52.87443 | 8.78769 | 32806 ft | 468 kts | 358° |
| 2026-05-07 22:00 | 52.94179 | 8.78739 | 31032 ft | 467 kts | 359° |
| 2026-05-07 22:01 | 53.00632 | 8.79736 | 29277 ft | 464 kts | 7° |
| 2026-05-07 22:01 | 53.07004 | 8.81110 | 27464 ft | 460 kts | 7° |
| 2026-05-07 22:01 | 53.13233 | 8.82562 | 25764 ft | 455 kts | 7° |
| 2026-05-07 22:01 | 53.19457 | 8.83968 | 24128 ft | 448 kts | 7° |
| 2026-05-07 22:02 | 53.25591 | 8.85377 | 22336 ft | 442 kts | 7° |
| 2026-05-07 22:02 | 53.31645 | 8.86767 | 20569 ft | 434 kts | 7° |
| 2026-05-07 22:02 | 53.37414 | 8.89310 | 18905 ft | 427 kts | 22° |
| 2026-05-07 22:02 | 53.42798 | 8.93221 | 17159 ft | 420 kts | 23° |
| 2026-05-07 22:03 | 53.48138 | 8.96988 | 15434 ft | 412 kts | 22° |
| 2026-05-07 22:03 | 53.53271 | 9.00668 | 13694 ft | 368 kts | 25° |
| 2026-05-07 22:03 | 53.57390 | 9.05300 | 12006 ft | 361 kts | 36° |
| 2026-05-07 22:03 | 53.61535 | 9.10250 | 10552 ft | 364 kts | 35° |
| 2026-05-07 22:04 | 53.65643 | 9.15169 | 9031 ft | 360 kts | 36° |
| 2026-05-07 22:04 | 53.69692 | 9.20038 | 7504 ft | 354 kts | 37° |
| 2026-05-07 22:04 | 53.73667 | 9.24822 | 6000 ft | 348 kts | 36° |
| 2026-05-07 22:04 | 53.76819 | 9.28626 | 4755 ft | 344 kts | 37° |
| 2026-05-07 22:05 | 53.77779 | 9.29821 | 4425 ft | 340 kts | 41° |
| 2026-05-07 22:05 | 53.78566 | 9.31227 | 4212 ft | 333 kts | 55° |
| 2026-05-07 22:05 | 53.79110 | 9.32917 | 4109 ft | 323 kts | 71° |
| 2026-05-07 22:05 | 53.79373 | 9.34719 | 4116 ft | 310 kts | 83° |
| 2026-05-07 22:06 | 53.79411 | 9.36502 | 4096 ft | 295 kts | 95° |
| 2026-05-07 22:06 | 53.79260 | 9.38128 | 4097 ft | 267 kts | 105° |
| 2026-05-07 22:06 | 53.78972 | 9.39549 | 4087 ft | 245 kts | 115° |
| 2026-05-07 22:06 | 53.78537 | 9.40913 | 4097 ft | 239 kts | 122° |
| 2026-05-07 22:07 | 53.76777 | 9.45360 | 4101 ft | 219 kts | 124° |
| 2026-05-07 22:07 | 53.75742 | 9.46980 | 4176 ft | 220 kts | 152° |
| 2026-05-07 22:07 | 53.75027 | 9.47427 | 4169 ft | 224 kts | 164° |
| 2026-05-07 22:07 | 53.74233 | 9.47570 | 4135 ft | 233 kts | 179° |
| 2026-05-07 22:08 | 53.73440 | 9.47330 | 4088 ft | 231 kts | 196° |
| 2026-05-07 22:08 | 53.72717 | 9.46741 | 4045 ft | 233 kts | 208° |
| 2026-05-07 22:08 | 53.72029 | 9.46000 | 4021 ft | 236 kts | 211° |
| 2026-05-07 22:08 | 53.71356 | 9.45223 | 4013 ft | 233 kts | 213° |
| 2026-05-07 22:09 | 53.69530 | 9.43678 | 4007 ft | 228 kts | 186° |
| 2026-05-07 22:09 | 53.66431 | 9.44483 | 4012 ft | 227 kts | 165° |
| 2026-05-07 22:09 | 53.63405 | 9.45668 | 4014 ft | 226 kts | 165° |
| 2026-05-07 22:09 | 53.60472 | 9.46830 | 4012 ft | 213 kts | 163° |
| 2026-05-07 22:10 | 53.57642 | 9.47954 | 4013 ft | 210 kts | 163° |
| 2026-05-07 22:10 | 53.54751 | 9.49096 | 4015 ft | 212 kts | 163° |
| 2026-05-07 22:10 | 53.51971 | 9.50189 | 3998 ft | 196 kts | 163° |
| 2026-05-07 22:10 | 53.49334 | 9.49501 | 3996 ft | 208 kts | 220° |
| 2026-05-07 22:11 | 53.47455 | 9.45815 | 4008 ft | 209 kts | 228° |
| 2026-05-07 22:11 | 53.45589 | 9.42100 | 4005 ft | 207 kts | 227° |
| 2026-05-07 22:11 | 53.43760 | 9.38476 | 4007 ft | 203 kts | 227° |
| 2026-05-07 22:11 | 53.41700 | 9.35422 | 3977 ft | 196 kts | 187° |
| 2026-05-07 22:12 | 53.39374 | 9.36738 | 3996 ft | 185 kts | 137° |
| 2026-05-07 22:12 | 53.37482 | 9.39528 | 3851 ft | 189 kts | 141° |
| 2026-05-07 22:12 | 53.35938 | 9.42692 | 3843 ft | 209 kts | 102° |
| 2026-05-07 22:12 | 53.35951 | 9.43918 | 3849 ft | 214 kts | 80° |
| 2026-05-07 22:13 | 53.36204 | 9.45056 | 3834 ft | 203 kts | 58° |
| 2026-05-07 22:13 | 53.36595 | 9.45946 | 3843 ft | 187 kts | 49° |
| 2026-05-07 22:13 | 53.37004 | 9.46752 | 3841 ft | 177 kts | 47° |
| 2026-05-07 22:13 | 53.37388 | 9.47481 | 3841 ft | 174 kts | 46° |
| 2026-05-07 22:14 | 53.37777 | 9.48215 | 3985 ft | 162 kts | 51° |
| 2026-05-07 22:14 | 53.38122 | 9.48878 | 3969 ft | 140 kts | 52° |
| 2026-05-07 22:14 | 53.38425 | 9.49473 | 3978 ft | 132 kts | 53° |
| 2026-05-07 22:14 | 53.38730 | 9.50082 | 3986 ft | 141 kts | 53° |
| 2026-05-07 22:15 | 53.39051 | 9.50725 | 3990 ft | 144 kts | 53° |
| 2026-05-07 22:15 | 53.39367 | 9.51352 | 3989 ft | 139 kts | 53° |
| 2026-05-07 22:15 | 53.39684 | 9.51983 | 3996 ft | 145 kts | 53° |
| 2026-05-07 22:15 | 53.40010 | 9.52630 | 3991 ft | 143 kts | 53° |
| 2026-05-07 22:16 | 53.40326 | 9.53257 | 3991 ft | 141 kts | 53° |
| 2026-05-07 22:16 | 53.40648 | 9.53898 | 3998 ft | 145 kts | 53° |
| 2026-05-07 22:16 | 53.40970 | 9.54539 | 3991 ft | 141 kts | 53° |
| 2026-05-07 22:16 | 53.41408 | 9.55410 | 3996 ft | 145 kts | 53° |
| 2026-05-07 22:17 | 53.42693 | 9.57969 | 3992 ft | 142 kts | 53° |
| 2026-05-07 22:17 | 53.43971 | 9.60514 | 4017 ft | 142 kts | 53° |
| 2026-05-07 22:17 | 53.45217 | 9.62995 | 4019 ft | 144 kts | 53° |
| 2026-05-07 22:17 | 53.46496 | 9.65544 | 4022 ft | 143 kts | 53° |
| 2026-05-07 22:18 | 53.47777 | 9.68100 | 4025 ft | 143 kts | 53° |
| 2026-05-07 22:18 | 53.49415 | 9.71384 | 3998 ft | 145 kts | 53° |
| 2026-05-07 22:18 | 53.49739 | 9.72034 | 3891 ft | 143 kts | 53° |
| 2026-05-07 22:19 | 53.50049 | 9.72656 | 3775 ft | 140 kts | 53° |
| 2026-05-07 22:19 | 53.50366 | 9.73293 | 3674 ft | 144 kts | 53° |
| 2026-05-07 22:19 | 53.50684 | 9.73930 | 3566 ft | 141 kts | 53° |
| 2026-05-07 22:19 | 53.50997 | 9.74558 | 3466 ft | 141 kts | 53° |
| 2026-05-07 22:20 | 53.51311 | 9.75190 | 3360 ft | 142 kts | 53° |
| 2026-05-07 22:20 | 53.51624 | 9.75819 | 3253 ft | 141 kts | 53° |
| 2026-05-07 22:20 | 53.51934 | 9.76442 | 3150 ft | 141 kts | 53° |
| 2026-05-07 22:20 | 53.52248 | 9.77074 | 3042 ft | 141 kts | 53° |
| 2026-05-07 22:21 | 53.52559 | 9.77698 | 2941 ft | 141 kts | 53° |
| 2026-05-07 22:21 | 53.52874 | 9.78331 | 2839 ft | 141 kts | 54° |
| 2026-05-07 22:21 | 53.53186 | 9.78956 | 2737 ft | 141 kts | 53° |
| 2026-05-07 22:21 | 53.53499 | 9.79584 | 2665 ft | 140 kts | 54° |
| 2026-05-07 22:22 | 53.53816 | 9.80221 | 2594 ft | 144 kts | 54° |
| 2026-05-07 22:22 | 53.54131 | 9.80854 | 2500 ft | 141 kts | 54° |
| 2026-05-07 22:22 | 53.54445 | 9.81483 | 2410 ft | 141 kts | 54° |
| 2026-05-07 22:22 | 53.54753 | 9.82102 | 2324 ft | 143 kts | 53° |
| 2026-05-07 22:23 | 53.55070 | 9.82738 | 2232 ft | 141 kts | 54° |
| 2026-05-07 22:23 | 53.55377 | 9.83356 | 2144 ft | 141 kts | 54° |
| 2026-05-07 22:23 | 53.55695 | 9.83995 | 2057 ft | 142 kts | 54° |
| 2026-05-07 22:23 | 53.56009 | 9.84628 | 1954 ft | 142 kts | 53° |
| 2026-05-07 22:24 | 53.56322 | 9.85257 | 1873 ft | 142 kts | 53° |
| 2026-05-07 22:24 | 53.56639 | 9.85895 | 1784 ft | 142 kts | 53° |
| 2026-05-07 22:24 | 53.56956 | 9.86533 | 1692 ft | 142 kts | 53° |
| 2026-05-07 22:24 | 53.57272 | 9.87169 | 1589 ft | 142 kts | 53° |
| 2026-05-07 22:25 | 53.57588 | 9.87806 | 1505 ft | 142 kts | 53° |
| 2026-05-07 22:25 | 53.57904 | 9.88442 | 1418 ft | 142 kts | 53° |
| 2026-05-07 22:25 | 53.58219 | 9.89079 | 1330 ft | 142 kts | 53° |
| 2026-05-07 22:25 | 53.58534 | 9.89716 | 1237 ft | 141 kts | 52° |
| 2026-05-07 22:26 | 53.58848 | 9.90346 | 1140 ft | 139 kts | 54° |
| 2026-05-07 22:26 | 53.59154 | 9.90965 | 1050 ft | 137 kts | 53° |
| 2026-05-07 22:26 | 53.59458 | 9.91580 | 954 ft | 137 kts | 54° |
| 2026-05-07 22:26 | 53.59764 | 9.92204 | 858 ft | 139 kts | 52° |
| 2026-05-07 22:27 | 53.60075 | 9.92831 | 744 ft | 139 kts | 52° |
| 2026-05-07 22:27 | 53.60383 | 9.93452 | 629 ft | 138 kts | 52° |
| 2026-05-07 22:27 | 53.60689 | 9.94072 | 532 ft | 138 kts | 51° |
| 2026-05-07 22:27 | 53.60997 | 9.94692 | 433 ft | 138 kts | 52° |
| 2026-05-07 22:28 | 53.61303 | 9.95306 | 303 ft | 136 kts | 50° |
| 2026-05-07 22:28 | 53.61600 | 9.95924 | 209 ft | 134 kts | 51° |
| 2026-05-07 22:28 | 53.61894 | 9.96523 | 123 ft | 136 kts | 51° |
| 2026-05-07 22:28 | 53.62202 | 9.97147 | 53 ft | 138 kts | 49° |
| 2026-05-07 22:29 | 53.62484 | 9.97707 | 48 ft | 111 kts | 50° |
| 2026-05-07 22:29 | 53.62691 | 9.98130 | 51 ft | 80 kts | 51° |
| 2026-05-07 22:29 | 53.62849 | 9.98449 | 51 ft | 58 kts | 49° |
| 2026-05-07 22:29 | 53.62949 | 9.98643 | 50 ft | 31 kts | 49° |
| 2026-05-07 22:30 | 53.62991 | 9.98727 | 50 ft | 8 kts | 50° |
| 2026-05-07 22:30 | 53.62993 | 9.98732 | 50 ft | 0 kts | 50° |
| 2026-05-07 22:30 | 53.62997 | 9.98740 | 50 ft | 4 kts | 50° |
| 2026-05-07 22:30 | 53.63009 | 9.98764 | 50 ft | 7 kts | 50° |
| 2026-05-07 22:31 | 53.63030 | 9.98807 | 50 ft | 12 kts | 50° |
| 2026-05-07 22:31 | 53.63060 | 9.98871 | 50 ft | 15 kts | 58° |
| 2026-05-07 22:31 | 53.63080 | 9.98960 | 52 ft | 18 kts | 77° |